This is the latest recevied weather packets stored in our database for station/object KD2CRT. If no packets are shown the sender has not sent any weather packets the latest 10 day(s).
| Time | Temp. | Humidity | Pressure | Rain* | Wind** | Luminosity | Snow |
|---|---|---|---|---|---|---|---|
| 1777780790 | 8.89° C | 56% | 997 hPa | 0 mm | - | - | - |
| 1777773597 | 11.11° C | 49% | 997 hPa | 0 mm | - | - | - |
| 1777766393 | 13.33° C | 43% | 996.1 hPa | 0 mm | - | - | - |
| 1777759195 | 16.67° C | 36% | 995.7 hPa | 0 mm | - | - | - |
| 1777751992 | 16.11° C | 39% | 995.8 hPa | 0 mm | - | - | - |
| 1777744798 | 18.33° C | 41% | 997.2 hPa | 0 mm | - | - | - |
| 1777737598 | 15° C | 50% | 997.9 hPa | 0 mm | - | - | - |
| 1777734042 | 13.89° C | 67% | 998.1 hPa | 0 mm | - | - | - |
| 1777730393 | 12.78° C | 72% | 998.1 hPa | 0 mm | - | - | - |
| 1777726827 | 11.11° C | 81% | 998.2 hPa | 0 mm | - | - | - |
| 1777719623 | 8.33° C | 90% | 997.5 hPa | 0 mm | - | - | - |
| 1777712415 | 10° C | 85% | 996.9 hPa | 0 mm | - | - | - |
| 1777705218 | 10.56° C | 79% | 997 hPa | 0 mm | - | - | - |
| 1777698016 | 11.67° C | 67% | 997.4 hPa | 0 mm | - | - | - |
| 1777690821 | 12.22° C | 59% | 997.2 hPa | 0 mm | - | - | - |
| 1777683628 | 12.78° C | 56% | 996.6 hPa | 0 mm | - | - | - |
| 1777676435 | 17.22° C | 42% | 995.7 hPa | 0 mm | - | - | - |
| 1777672802 | 19.44° C | 38% | 995.8 hPa | 0 mm | - | - | - |
| 1777672791 | 19.44° C | 38% | 995.8 hPa | 0 mm | - | - | - |
| 1777669243 | 20° C | 39% | 995.8 hPa | 0 mm | - | - | - |
| 1777665602 | 20° C | 43% | 996.2 hPa | 0 mm | - | - | - |
| 1777665597 | 20° C | 43% | 996.2 hPa | 0 mm | - | - | - |
| 1777662047 | 20° C | 44% | 996.7 hPa | 0 mm | - | - | - |
| 1777658398 | 18.33° C | 44% | 997.3 hPa | 0 mm | - | - | - |
| 1777651205 | 16.11° C | 55% | 998.7 hPa | 0 mm | - | - | - |
* Rain latest hour (hover to see other rain measurements)
** Current wind speed in m/s (hover to see current wind gust speed)